Latest Weather Observations for Swanbourne

IDW60801

Issued at 10:05 pm WST Wednesday 20 August 2014 (issued every 30 minutes, with the page automatically refreshed every 10 minutes)

About weather observations | Map of weather stations | Latest weather observations for WA | Other Formats
Station Details ID: 009215 Name: SWANBOURNE Lat: -31.96 Lon: 115.76 Height: 40.96 m
Data from the previous 72 hours. | See also: Recent months at Swanbourne
Date/Time
WST
Temp
°C
App
Temp
°C
Dew
Point
Rel
Hum
%
Delta-T
°C
Wind Press
QNH
hPa
Press
MSL
hPa
Rain
since 9 am
mm
Dir
 
Spd
km/h
Gust
km/h
Spd
kts
Gust
kts
20/10:00pm 16.1 14.4 11.1 72 2.7 N 11 19 6 10 - - 3.6
20/09:30pm 16.4 14.3 11.3 72 2.8 N 13 20 7 11 - - 3.6
20/09:00pm 16.6 14.7 11.7 73 2.7 N 13 26 7 14 - - 3.6
20/08:30pm 16.7 15.1 11.4 71 2.9 N 11 19 6 10 - - 3.6
20/08:00pm 17.9 15.9 12.6 71 3.0 NNW 15 24 8 13 - - 3.6
20/07:30pm 17.7 13.9 11.0 65 3.6 NNW 22 30 12 16 - - 3.6
20/07:00pm 17.4 14.2 11.4 68 3.3 NNW 19 28 10 15 - - 3.6
20/06:30pm 17.3 15.0 11.8 70 3.0 NNW 15 26 8 14 - - 3.6
20/06:00pm 17.1 15.1 11.6 70 3.0 NNW 13 20 7 11 - - 3.6
20/05:30pm 17.4 14.8 11.9 70 3.0 NNW 17 26 9 14 - - 3.6
20/05:00pm 17.7 14.3 11.3 66 3.5 NNW 20 28 11 15 - - 3.6
20/04:30pm 18.1 15.5 12.1 68 3.3 NNW 17 22 9 12 - - 3.6
20/04:00pm 18.1 15.1 12.1 68 3.3 NNW 19 24 10 13 - - 3.6
20/03:30pm 17.7 16.2 13.0 74 2.6 N 13 19 7 10 - - 3.6
20/03:00pm 18.4 16.4 13.9 75 2.6 NNW 17 22 9 12 - - 3.6
20/02:30pm 17.5 16.5 13.4 77 2.3 N 11 19 6 10 - - 3.6
20/02:00pm 17.3 16.5 15.1 87 1.3 NNW 13 17 7 9 - - 3.6
20/01:30pm 16.3 16.3 15.3 94 0.6 N 9 15 5 8 - - 3.6
20/01:00pm 15.8 15.0 14.0 89 1.0 NNW 11 17 6 9 - - 3.0
20/12:30pm 15.8 16.9 15.5 98 0.2 NNW 4 7 2 4 - - 2.8
20/12:00pm 14.8 14.5 14.5 98 0.2 NW 9 17 5 9 - - 2.8
20/11:30am 15.2 14.5 14.2 94 0.6 N 11 20 6 11 - - 0.6
20/11:00am 16.0 13.4 13.1 83 1.6 N 19 30 10 16 - - 0.0
20/10:30am 15.9 13.0 13.0 83 1.6 N 20 33 11 18 - - 0.0
20/10:00am 15.9 12.8 13.4 85 1.4 N 22 33 12 18 - - 0.0
20/09:30am 15.7 13.4 13.0 84 1.5 N 17 28 9 15 - - 0.0
20/09:00am 16.0 13.8 13.3 84 1.5 N 17 30 9 16 - - 1.0
20/08:30am 14.8 13.7 13.2 90 0.9 N 11 17 6 9 - - 1.0
20/08:00am 14.1 13.2 13.6 97 0.3 NNE 11 17 6 9 - - 1.0
20/07:30am 13.1 12.3 12.8 98 0.2 NE 9 15 5 8 - - 1.0
20/07:00am 12.4 11.7 12.1 98 0.2 ENE 7 11 4 6 - - 1.0
20/06:30am 12.8 12.2 12.3 97 0.3 NE 7 15 4 8 - - 0.8
20/06:00am 12.9 11.8 12.1 95 0.4 ENE 9 11 5 6 - - 0.8
20/05:30am 13.6 12.8 11.8 89 1.0 ENE 7 9 4 5 - - 0.8
20/05:00am 15.0 14.1 12.7 86 1.3 W 9 15 5 8 - - 0.8
20/04:30am 14.7 14.8 14.4 98 0.2 NW 7 17 4 9 - - 0.8
20/04:00am 14.2 14.3 13.9 98 0.2 N 6 13 3 7 - - 0.8
20/03:30am 13.6 13.3 13.3 98 0.2 NE 7 9 4 5 - - 0.8
20/03:00am 13.4 13.0 13.1 98 0.2 NE 7 9 4 5 - - 0.8
20/02:30am 13.8 13.6 13.5 98 0.2 NE 7 11 4 6 - - 0.8
20/02:00am 14.0 14.0 13.7 98 0.2 NE 6 9 3 5 - - 0.8
20/01:30am 14.2 14.3 13.9 98 0.2 NE 6 9 3 5 - - 0.8
20/01:00am 14.3 14.2 14.0 98 0.2 ENE 7 9 4 5 - - 0.8
20/12:30am 14.3 14.2 14.0 98 0.2 ENE 7 9 4 5 - - 0.8
20/12:00am 14.3 14.8 14.0 98 0.2 E 4 6 2 3 - - 0.8
 
Date/Time
WST
Temp
°C
App
Temp
°C
Dew
Point
Rel
Hum
%
Delta-T
°C
Wind Press
QNH
hPa
Press
MSL
hPa
Rain
since 9 am
mm
Dir
 
Spd
km/h
Gust
km/h
Spd
kts
Gust
kts
19/11:30pm 14.3 14.3 13.7 96 0.3 ENE 6 7 3 4 - - 0.8
19/11:00pm 14.6 14.4 13.6 94 0.6 ENE 7 11 4 6 - - 0.8
19/10:30pm 14.7 15.1 13.6 93 0.6 ESE 4 6 2 3 - - 0.4
19/10:00pm 14.9 15.8 13.9 94 0.6 S 2 6 1 3 - - 0.2
19/09:30pm 14.8 14.9 13.8 94 0.6 W 6 13 3 7 - - 0.2
19/09:00pm 15.2 15.2 14.2 94 0.6 NNW 7 11 4 6 - - 0.2
19/08:30pm 15.6 14.3 13.8 89 1.0 NW 13 17 7 9 - - 0.2
19/08:00pm 15.4 15.3 13.8 90 0.9 N 7 9 4 5 - - 0.0
19/07:30pm 15.2 15.0 13.7 91 0.8 N 7 9 4 5 - - 0.0
19/07:00pm 15.2 15.0 13.6 90 0.9 N 7 9 4 5 - - 0.0
19/06:30pm 14.9 14.6 12.8 87 1.2 N 6 6 3 3 - - 0.0
19/06:00pm 15.5 15.2 12.6 83 1.6 N 6 7 3 4 - - 0.0
19/05:30pm 16.3 15.5 13.0 81 1.8 NNW 9 11 5 6 - - 0.0
19/05:00pm 17.8 17.3 13.7 77 2.3 NW 9 11 5 6 - - 0.0
19/04:30pm 18.0 17.2 14.1 78 2.2 NW 11 15 6 8 - - 0.0
19/04:00pm 18.6 17.6 14.5 77 2.4 NW 13 19 7 10 - - 0.0
19/03:30pm 19.3 18.2 13.0 67 3.6 WNW 11 15 6 8 - - 0.0
19/03:00pm 20.1 19.4 13.3 65 3.9 WNW 9 15 5 8 - - 0.0
19/02:30pm 19.4 18.7 13.1 67 3.6 W 9 13 5 7 - - 0.0
19/02:00pm 19.0 18.1 12.5 66 3.6 W 9 13 5 7 - - 0.0
19/01:30pm 18.9 18.5 12.9 68 3.4 WSW 7 11 4 6 - - 0.0
19/01:00pm 18.6 17.8 12.8 69 3.3 WSW 9 13 5 7 - - 0.0
19/12:30pm 18.3 18.2 13.2 72 2.9 W 6 9 3 5 - - 0.0
19/12:00pm 19.1 19.1 14.1 73 2.9 WNW 7 9 4 5 - - 0.0
19/11:30am 17.4 17.5 13.9 80 2.0 W 6 9 3 5 - - 0.0
19/11:00am 17.4 19.1 16.3 93 0.7 W 2 4 1 2 - - 0.0
19/10:30am 16.1 17.6 15.8 98 0.2 ENE 2 4 1 2 - - 0.0
19/10:00am 15.2 15.5 14.9 98 0.2 ENE 7 9 4 5 - - 0.0
19/09:30am 14.8 14.9 14.5 98 0.2 ENE 7 13 4 7 - - 0.0
19/09:00am 14.7 14.4 14.4 98 0.2 ESE 9 15 5 8 - - 17.8
19/08:30am 13.7 14.0 13.4 98 0.2 ENE 4 9 2 5 - - 17.6
19/08:00am 13.7 13.6 13.4 98 0.2 E 6 9 3 5 - - 12.2
19/07:30am 13.4 13.2 13.1 98 0.2 ENE 6 9 3 5 - - 12.2
19/07:00am 12.9 12.0 12.6 98 0.2 ENE 9 9 5 5 - - 12.2
19/06:30am 12.7 12.3 12.4 98 0.2 NE 6 7 3 4 - - 12.0
19/06:00am 13.2 13.0 12.9 98 0.2 E 6 7 3 4 - - 12.0
19/05:30am 13.3 14.2 13.0 98 0.2 CALM 0 2 0 1 - - 12.0
19/05:00am 13.3 13.9 13.0 98 0.2 S 2 4 1 2 - - 12.0
19/04:30am 13.5 12.4 13.2 98 0.2 S 11 19 6 10 - - 12.0
19/04:00am 14.1 14.5 13.8 98 0.2 SSE 4 7 2 4 - - 11.4
19/03:30am 14.8 13.8 14.5 98 0.2 SW 13 20 7 11 - - 10.8
19/03:00am 14.9 11.2 13.9 94 0.6 SW 26 39 14 21 - - 8.8
19/02:30am 16.8 13.2 12.9 78 2.2 W 24 35 13 19 - - 7.6
19/02:00am 16.5 13.7 12.7 78 2.1 W 19 28 10 15 - - 7.6
19/01:30am 16.1 13.1 12.1 77 2.2 W 19 30 10 16 - - 7.6
19/01:00am 15.9 13.3 12.1 78 2.1 W 17 24 9 13 - - 7.6
19/12:30am 16.0 12.8 11.8 76 2.3 W 20 32 11 17 - - 7.6
19/12:00am 16.1 12.8 11.7 75 2.4 W 20 32 11 17 - - 7.6
 
Date/Time
WST
Temp
°C
App
Temp
°C
Dew
Point
Rel
Hum
%
Delta-T
°C
Wind Press
QNH
hPa
Press
MSL
hPa
Rain
since 9 am
mm
Dir
 
Spd
km/h
Gust
km/h
Spd
kts
Gust
kts
18/11:30pm 16.3 13.3 12.1 76 2.3 W 19 32 10 17 - - 7.6
18/11:00pm 15.3 13.9 12.2 82 1.7 WSW 11 17 6 9 - - 7.6
18/10:30pm 16.3 12.8 12.3 77 2.2 W 22 30 12 16 - - 7.6
18/10:00pm 15.7 13.1 13.2 85 1.4 W 19 28 10 15 - - 7.6
18/09:30pm 15.3 12.4 13.0 86 1.3 W 20 32 11 17 - - 7.6
18/09:00pm 15.5 12.4 13.3 87 1.2 WSW 22 35 12 19 - - 7.6
18/08:42pm 15.1 10.5 12.2 83 1.6 WSW 28 46 15 25 - - 7.6
18/08:30pm 15.9 11.8 13.7 87 1.2 W 28 37 15 20 - - 7.6
18/08:00pm 15.3 11.6 13.8 91 0.8 W 26 37 14 20 - - 7.4
18/07:30pm 15.4 12.4 14.9 97 0.3 W 24 41 13 22 - - 7.4
18/07:00pm 15.2 11.2 14.1 93 0.6 W 28 41 15 22 - - 7.4
18/06:30pm 16.0 12.6 13.7 86 1.3 W 24 35 13 19 - - 4.0
18/06:00pm 15.8 11.6 13.5 86 1.3 W 28 43 15 23 - - 4.0
18/05:30pm 15.3 11.0 14.3 94 0.6 WNW 30 41 16 22 - - 4.0
18/05:00pm 15.0 11.5 14.5 97 0.3 WNW 26 39 14 21 - - 4.0
18/04:30pm 15.3 11.3 14.0 92 0.7 WNW 28 46 15 25 - - 2.8
18/04:05pm 16.6 12.5 13.7 83 1.6 W 28 48 15 26 - - 2.0
18/04:00pm 16.8 11.6 13.5 81 1.9 W 33 48 18 26 - - 2.0
18/03:30pm 16.8 10.7 11.7 72 2.8 WNW 35 48 19 26 - - 2.0
18/03:19pm 17.2 11.6 12.1 72 2.8 WNW 33 54 18 29 - - 2.0
18/03:00pm 18.0 12.7 12.5 70 3.1 W 32 46 17 25 - - 2.0
18/02:30pm 18.5 12.3 11.3 63 3.9 WNW 35 48 19 26 - - 2.0
18/02:00pm 18.6 13.0 12.1 66 3.6 WNW 33 48 18 26 - - 2.0
18/01:30pm 18.5 13.0 12.5 68 3.3 WNW 33 46 18 25 - - 2.0
18/01:00pm 17.7 12.3 12.8 73 2.7 W 33 46 18 25 - - 2.0
18/12:30pm 17.1 11.8 13.0 77 2.3 W 33 54 18 29 - - 1.6
18/12:29pm 17.8 12.6 12.9 73 2.7 WNW 32 54 17 29 - - 1.6
18/12:00pm 17.4 12.2 12.7 74 2.6 W 32 46 17 25 - - 1.6
18/11:30am 17.4 12.5 14.3 82 1.8 WNW 33 46 18 25 - - 1.6
18/11:03am 15.1 10.4 13.1 88 1.1 W 30 48 16 26 - - 1.4
18/11:00am 15.1 9.6 12.6 85 1.4 W 33 50 18 27 - - 1.4
18/10:52am 17.0 10.9 13.1 78 2.2 W 37 50 20 27 - - 0.6
18/10:48am 17.9 14.1 14.8 82 1.8 NW 28 46 15 25 - - 0.6
18/10:30am 15.8 11.7 13.8 88 1.1 W 28 44 15 24 - - 0.6
18/10:17am 16.5 12.0 13.8 84 1.5 WNW 30 54 16 29 - - 0.6
18/10:00am 16.6 13.1 14.6 88 1.1 NW 26 41 14 22 - - 0.4
18/09:34am 16.3 11.9 14.1 87 1.3 WNW 30 50 16 27 - - 0.0
18/09:30am 15.6 10.3 13.1 85 1.4 WNW 33 50 18 27 - - 0.0
18/09:00am 15.2 11.8 13.6 90 0.9 NW 24 35 13 19 - - 25.0
18/08:42am 17.2 12.7 12.7 75 2.5 NW 28 52 15 28 - - 23.0
18/08:30am 16.8 13.5 12.9 78 2.2 NNW 22 32 12 17 - - 23.0
18/08:00am 16.5 11.7 12.8 79 2.1 NNW 30 41 16 22 - - 23.0
18/07:31am 15.6 10.9 13.1 85 1.4 NNW 30 48 16 26 - - 23.0
18/07:30am 15.7 11.5 13.4 86 1.3 NNW 28 44 15 24 - - 23.0
18/07:00am 14.6 9.1 12.5 87 1.1 NW 33 52 18 28 - - 23.0
18/06:31am 16.1 11.0 10.6 70 2.9 NW 28 46 15 25 - - 22.0
18/06:30am 16.2 11.6 11.2 72 2.7 NW 26 46 14 25 - - 22.0
18/06:00am 16.4 11.0 9.6 64 3.5 NW 28 43 15 23 - - 22.0
18/05:30am 16.2 10.5 8.4 60 4.0 NW 28 41 15 22 - - 22.0
18/05:00am 16.0 10.3 8.5 61 3.8 WNW 28 43 15 23 - - 22.0
18/04:30am 16.0 10.2 8.0 59 4.0 WNW 28 39 15 21 - - 22.0
18/04:00am 16.1 9.6 8.1 59 4.0 NW 32 43 17 23 - - 22.0
18/03:30am 15.8 10.1 9.7 67 3.2 WNW 30 43 16 23 - - 22.0
18/03:00am 15.5 9.2 9.8 69 3.0 WNW 33 44 18 24 - - 22.0
18/02:30am 14.6 9.6 11.0 79 1.9 WNW 28 44 15 24 - - 22.0
18/02:00am 14.9 12.6 14.6 98 0.2 WNW 20 30 11 16 - - 22.0
18/01:30am 14.5 14.1 14.2 98 0.2 NNE 9 13 5 7 - - 21.8
18/01:00am 14.3 13.5 14.0 98 0.2 N 11 19 6 10 - - 21.6
18/12:30am 14.0 11.6 13.7 98 0.2 NNE 19 33 10 18 - - 17.8
18/12:00am 14.2 12.2 13.9 98 0.2 NNE 17 32 9 17 - - 11.2
 
Date/Time
WST
Temp
°C
App
Temp
°C
Dew
Point
Rel
Hum
%
Delta-T
°C
Wind Press
QNH
hPa
Press
MSL
hPa
Rain
since 9 am
mm
Dir
 
Spd
km/h
Gust
km/h
Spd
kts
Gust
kts
17/11:36pm 14.8 10.9 14.3 97 0.3 N 28 46 15 25 - - 9.2
17/11:30pm 14.9 10.6 14.3 96 0.3 N 30 46 16 25 - - 6.4
17/11:00pm 15.2 12.2 14.9 98 0.2 N 24 39 13 21 - - 5.2
17/10:30pm 15.8 10.2 15.5 98 0.2 N 39 61 21 33 - - 3.4

Other Formats:

Comma delimited format used in spreadsheet applications
http://www.bom.gov.au/fwo/IDW60801/IDW60801.94614.axf

JavaScript Object Notation format (JSON) in row-major order
http://www.bom.gov.au/fwo/IDW60801/IDW60801.94614.json